sensor_id;sensor_type;location;lat;lon;timestamp;temperature;humidity
37410;DHT22;23275;48.914;12.566;2023-10-08T00:01:41;13.10;99.90
37410;DHT22;23275;48.914;12.566;2023-10-08T00:04:08;13.10;99.90
37410;DHT22;23275;48.914;12.566;2023-10-08T00:06:35;13.10;99.90
37410;DHT22;23275;48.914;12.566;2023-10-08T00:09:01;13.10;99.90
37410;DHT22;23275;48.914;12.566;2023-10-08T00:11:31;13.10;99.90
37410;DHT22;23275;48.914;12.566;2023-10-08T00:13:57;13.10;99.90
37410;DHT22;23275;48.914;12.566;2023-10-08T00:16:22;13.00;99.90
37410;DHT22;23275;48.914;12.566;2023-10-08T00:18:48;13.00;99.90
37410;DHT22;23275;48.914;12.566;2023-10-08T00:21:21;13.00;99.90
37410;DHT22;23275;48.914;12.566;2023-10-08T00:23:53;12.90;99.90
37410;DHT22;23275;48.914;12.566;2023-10-08T00:26:25;12.90;99.90
37410;DHT22;23275;48.914;12.566;2023-10-08T00:28:57;12.90;99.90
37410;DHT22;23275;48.914;12.566;2023-10-08T00:31:25;12.90;99.90
37410;DHT22;23275;48.914;12.566;2023-10-08T00:33:56;12.90;99.90
37410;DHT22;23275;48.914;12.566;2023-10-08T00:36:22;12.90;99.90
37410;DHT22;23275;48.914;12.566;2023-10-08T00:38:50;13.00;99.90
37410;DHT22;23275;48.914;12.566;2023-10-08T00:41:19;12.90;99.90
37410;DHT22;23275;48.914;12.566;2023-10-08T00:43:48;12.90;99.90
37410;DHT22;23275;48.914;12.566;2023-10-08T00:46:14;13.00;99.90
37410;DHT22;23275;48.914;12.566;2023-10-08T00:48:53;13.00;99.90
37410;DHT22;23275;48.914;12.566;2023-10-08T00:51:21;13.00;99.90
37410;DHT22;23275;48.914;12.566;2023-10-08T00:53:50;12.90;99.90
37410;DHT22;23275;48.914;12.566;2023-10-08T00:56:18;12.90;99.90
37410;DHT22;23275;48.914;12.566;2023-10-08T00:58:45;12.90;99.90
37410;DHT22;23275;48.914;12.566;2023-10-08T01:01:18;12.90;99.90
37410;DHT22;23275;48.914;12.566;2023-10-08T01:03:46;12.90;99.90
37410;DHT22;23275;48.914;12.566;2023-10-08T01:06:16;12.90;99.90
37410;DHT22;23275;48.914;12.566;2023-10-08T01:08:44;13.00;99.90
37410;DHT22;23275;48.914;12.566;2023-10-08T01:11:22;13.00;99.90
37410;DHT22;23275;48.914;12.566;2023-10-08T01:14:04;13.00;99.90
37410;DHT22;23275;48.914;12.566;2023-10-08T01:16:32;13.00;99.90
37410;DHT22;23275;48.914;12.566;2023-10-08T01:19:00;13.00;99.90
37410;DHT22;23275;48.914;12.566;2023-10-08T01:21:28;13.00;99.90
37410;DHT22;23275;48.914;12.566;2023-10-08T01:24:03;13.00;99.90
37410;DHT22;23275;48.914;12.566;2023-10-08T01:26:32;13.00;99.90
37410;DHT22;23275;48.914;12.566;2023-10-08T01:28:58;13.00;99.90
37410;DHT22;23275;48.914;12.566;2023-10-08T01:31:32;13.00;99.90
37410;DHT22;23275;48.914;12.566;2023-10-08T01:33:58;13.00;99.90
37410;DHT22;23275;48.914;12.566;2023-10-08T01:36:27;13.00;99.90
37410;DHT22;23275;48.914;12.566;2023-10-08T01:38:53;13.00;99.90
37410;DHT22;23275;48.914;12.566;2023-10-08T01:41:20;13.00;99.90
37410;DHT22;23275;48.914;12.566;2023-10-08T01:43:51;13.00;99.90
37410;DHT22;23275;48.914;12.566;2023-10-08T01:46:17;13.00;99.90
37410;DHT22;23275;48.914;12.566;2023-10-08T01:48:47;13.00;99.90
37410;DHT22;23275;48.914;12.566;2023-10-08T01:51:19;13.00;99.90
37410;DHT22;23275;48.914;12.566;2023-10-08T01:53:54;13.00;99.90
37410;DHT22;23275;48.914;12.566;2023-10-08T01:56:23;12.90;99.90
37410;DHT22;23275;48.914;12.566;2023-10-08T01:58:49;12.90;99.90
37410;DHT22;23275;48.914;12.566;2023-10-08T02:01:19;12.90;99.90
37410;DHT22;23275;48.914;12.566;2023-10-08T02:03:45;12.80;99.90
37410;DHT22;23275;48.914;12.566;2023-10-08T02:06:10;12.70;99.90
37410;DHT22;23275;48.914;12.566;2023-10-08T02:08:38;12.60;99.90
37410;DHT22;23275;48.914;12.566;2023-10-08T02:11:03;12.60;99.90
37410;DHT22;23275;48.914;12.566;2023-10-08T02:13:29;12.60;99.90
37410;DHT22;23275;48.914;12.566;2023-10-08T02:15:56;12.60;99.90
37410;DHT22;23275;48.914;12.566;2023-10-08T02:18:21;12.60;99.90
37410;DHT22;23275;48.914;12.566;2023-10-08T02:20:51;12.50;99.90
37410;DHT22;23275;48.914;12.566;2023-10-08T02:23:17;12.50;99.90
37410;DHT22;23275;48.914;12.566;2023-10-08T02:25:43;12.50;99.90
37410;DHT22;23275;48.914;12.566;2023-10-08T02:28:10;12.50;99.90
37410;DHT22;23275;48.914;12.566;2023-10-08T02:30:41;12.50;99.90
37410;DHT22;23275;48.914;12.566;2023-10-08T02:33:07;12.50;99.90
37410;DHT22;23275;48.914;12.566;2023-10-08T02:35:42;12.50;99.90
37410;DHT22;23275;48.914;12.566;2023-10-08T02:38:10;12.60;99.90
37410;DHT22;23275;48.914;12.566;2023-10-08T02:40:38;12.60;99.90
37410;DHT22;23275;48.914;12.566;2023-10-08T02:43:10;12.60;99.90
37410;DHT22;23275;48.914;12.566;2023-10-08T02:45:37;12.60;99.90
37410;DHT22;23275;48.914;12.566;2023-10-08T02:48:05;12.60;99.90
37410;DHT22;23275;48.914;12.566;2023-10-08T02:50:38;12.60;99.90
37410;DHT22;23275;48.914;12.566;2023-10-08T02:53:05;12.60;99.90
37410;DHT22;23275;48.914;12.566;2023-10-08T02:55:37;12.60;99.90
37410;DHT22;23275;48.914;12.566;2023-10-08T02:58:08;12.70;99.90
37410;DHT22;23275;48.914;12.566;2023-10-08T03:00:39;12.60;99.90
37410;DHT22;23275;48.914;12.566;2023-10-08T03:03:06;12.70;99.90
37410;DHT22;23275;48.914;12.566;2023-10-08T03:05:51;12.70;99.90
37410;DHT22;23275;48.914;12.566;2023-10-08T03:08:17;12.70;99.90
37410;DHT22;23275;48.914;12.566;2023-10-08T03:10:51;12.70;99.90
37410;DHT22;23275;48.914;12.566;2023-10-08T03:13:28;12.60;99.90
37410;DHT22;23275;48.914;12.566;2023-10-08T03:15:53;12.60;99.90
37410;DHT22;23275;48.914;12.566;2023-10-08T03:18:28;12.50;99.90
37410;DHT22;23275;48.914;12.566;2023-10-08T03:21:05;12.50;99.90
37410;DHT22;23275;48.914;12.566;2023-10-08T03:23:32;12.50;99.90
37410;DHT22;23275;48.914;12.566;2023-10-08T03:26:02;12.50;99.90
37410;DHT22;23275;48.914;12.566;2023-10-08T03:28:37;12.50;99.90
37410;DHT22;23275;48.914;12.566;2023-10-08T03:31:03;12.50;99.90
37410;DHT22;23275;48.914;12.566;2023-10-08T03:33:35;12.40;99.90
37410;DHT22;23275;48.914;12.566;2023-10-08T03:36:03;12.40;99.90
37410;DHT22;23275;48.914;12.566;2023-10-08T03:38:52;12.40;99.90
37410;DHT22;23275;48.914;12.566;2023-10-08T03:41:24;12.40;99.90
37410;DHT22;23275;48.914;12.566;2023-10-08T03:43:54;12.40;99.90
37410;DHT22;23275;48.914;12.566;2023-10-08T03:46:32;12.50;99.90
37410;DHT22;23275;48.914;12.566;2023-10-08T03:49:05;12.50;99.90
37410;DHT22;23275;48.914;12.566;2023-10-08T03:51:36;12.50;99.90
37410;DHT22;23275;48.914;12.566;2023-10-08T03:54:06;12.50;99.90
37410;DHT22;23275;48.914;12.566;2023-10-08T03:56:34;12.50;99.90
37410;DHT22;23275;48.914;12.566;2023-10-08T03:59:02;12.50;99.90
37410;DHT22;23275;48.914;12.566;2023-10-08T04:01:46;12.50;99.90
37410;DHT22;23275;48.914;12.566;2023-10-08T04:04:14;12.50;99.90
37410;DHT22;23275;48.914;12.566;2023-10-08T04:06:41;12.50;99.90
37410;DHT22;23275;48.914;12.566;2023-10-08T04:09:15;12.40;99.90
37410;DHT22;23275;48.914;12.566;2023-10-08T04:11:51;12.40;99.90
37410;DHT22;23275;48.914;12.566;2023-10-08T04:14:20;12.40;99.90
37410;DHT22;23275;48.914;12.566;2023-10-08T04:16:46;12.40;99.90
37410;DHT22;23275;48.914;12.566;2023-10-08T04:19:17;12.40;99.90
37410;DHT22;23275;48.914;12.566;2023-10-08T04:21:43;12.30;99.90
37410;DHT22;23275;48.914;12.566;2023-10-08T04:24:09;12.30;99.90
37410;DHT22;23275;48.914;12.566;2023-10-08T04:26:37;12.20;99.90
37410;DHT22;23275;48.914;12.566;2023-10-08T04:29:05;12.20;99.90
37410;DHT22;23275;48.914;12.566;2023-10-08T04:31:34;12.10;99.90
37410;DHT22;23275;48.914;12.566;2023-10-08T04:34:04;12.10;99.90
37410;DHT22;23275;48.914;12.566;2023-10-08T04:36:36;12.00;99.90
37410;DHT22;23275;48.914;12.566;2023-10-08T04:39:05;12.00;99.90
37410;DHT22;23275;48.914;12.566;2023-10-08T04:41:41;12.00;99.90
37410;DHT22;23275;48.914;12.566;2023-10-08T04:44:11;11.90;99.90
37410;DHT22;23275;48.914;12.566;2023-10-08T04:46:41;11.90;99.90
37410;DHT22;23275;48.914;12.566;2023-10-08T04:49:16;11.90;99.90
37410;DHT22;23275;48.914;12.566;2023-10-08T04:51:59;11.90;99.90
37410;DHT22;23275;48.914;12.566;2023-10-08T04:54:28;11.90;99.90
37410;DHT22;23275;48.914;12.566;2023-10-08T04:57:00;11.90;99.90
37410;DHT22;23275;48.914;12.566;2023-10-08T04:59:29;11.90;99.90
37410;DHT22;23275;48.914;12.566;2023-10-08T05:02:03;11.90;99.90
37410;DHT22;23275;48.914;12.566;2023-10-08T05:04:47;11.90;99.90
37410;DHT22;23275;48.914;12.566;2023-10-08T05:07:42;11.90;99.90
37410;DHT22;23275;48.914;12.566;2023-10-08T05:10:11;11.90;99.90
37410;DHT22;23275;48.914;12.566;2023-10-08T05:12:49;11.90;99.90
37410;DHT22;23275;48.914;12.566;2023-10-08T05:15:30;11.90;99.90
37410;DHT22;23275;48.914;12.566;2023-10-08T05:18:03;11.90;99.90
37410;DHT22;23275;48.914;12.566;2023-10-08T05:20:38;11.90;99.90
37410;DHT22;23275;48.914;12.566;2023-10-08T05:23:17;11.90;99.90
37410;DHT22;23275;48.914;12.566;2023-10-08T05:26:06;11.90;99.90
37410;DHT22;23275;48.914;12.566;2023-10-08T05:28:36;11.90;99.90
37410;DHT22;23275;48.914;12.566;2023-10-08T05:31:16;11.90;99.90
37410;DHT22;23275;48.914;12.566;2023-10-08T05:33:44;11.80;99.90
37410;DHT22;23275;48.914;12.566;2023-10-08T05:36:28;11.80;99.90
37410;DHT22;23275;48.914;12.566;2023-10-08T05:39:01;11.80;99.90
37410;DHT22;23275;48.914;12.566;2023-10-08T05:41:41;11.90;99.90
37410;DHT22;23275;48.914;12.566;2023-10-08T05:44:17;11.90;99.90
37410;DHT22;23275;48.914;12.566;2023-10-08T05:46:45;12.00;99.90
37410;DHT22;23275;48.914;12.566;2023-10-08T05:49:17;12.00;99.90
37410;DHT22;23275;48.914;12.566;2023-10-08T05:52:02;12.00;99.90
37410;DHT22;23275;48.914;12.566;2023-10-08T05:54:28;12.00;99.90
37410;DHT22;23275;48.914;12.566;2023-10-08T05:57:04;11.90;99.90
37410;DHT22;23275;48.914;12.566;2023-10-08T05:59:33;12.00;99.90
37410;DHT22;23275;48.914;12.566;2023-10-08T06:02:06;12.00;99.90
37410;DHT22;23275;48.914;12.566;2023-10-08T06:04:52;12.00;99.90
37410;DHT22;23275;48.914;12.566;2023-10-08T06:10:25;12.10;99.90
37410;DHT22;23275;48.914;12.566;2023-10-08T06:13:07;12.10;99.90
37410;DHT22;23275;48.914;12.566;2023-10-08T06:15:42;12.20;99.90
37410;DHT22;23275;48.914;12.566;2023-10-08T06:18:18;12.20;99.90
37410;DHT22;23275;48.914;12.566;2023-10-08T06:20:45;12.20;99.90
37410;DHT22;23275;48.914;12.566;2023-10-08T06:23:15;12.30;99.90
37410;DHT22;23275;48.914;12.566;2023-10-08T06:25:44;12.30;99.90
37410;DHT22;23275;48.914;12.566;2023-10-08T06:28:17;12.40;99.90
37410;DHT22;23275;48.914;12.566;2023-10-08T06:30:46;12.50;99.90
37410;DHT22;23275;48.914;12.566;2023-10-08T06:33:14;12.60;99.90
37410;DHT22;23275;48.914;12.566;2023-10-08T06:35:40;12.70;99.90
37410;DHT22;23275;48.914;12.566;2023-10-08T06:38:10;12.80;99.90
37410;DHT22;23275;48.914;12.566;2023-10-08T06:40:37;12.90;99.90
37410;DHT22;23275;48.914;12.566;2023-10-08T06:43:03;13.00;99.90
37410;DHT22;23275;48.914;12.566;2023-10-08T06:45:40;13.10;99.90
37410;DHT22;23275;48.914;12.566;2023-10-08T06:48:07;13.10;99.90
37410;DHT22;23275;48.914;12.566;2023-10-08T06:50:33;13.20;99.90
37410;DHT22;23275;48.914;12.566;2023-10-08T06:53:03;13.20;99.90
37410;DHT22;23275;48.914;12.566;2023-10-08T06:55:33;13.30;99.90
37410;DHT22;23275;48.914;12.566;2023-10-08T06:58:01;13.40;99.90
37410;DHT22;23275;48.914;12.566;2023-10-08T07:00:34;13.60;99.90
37410;DHT22;23275;48.914;12.566;2023-10-08T07:03:04;13.70;99.90
37410;DHT22;23275;48.914;12.566;2023-10-08T07:05:33;13.80;99.90
37410;DHT22;23275;48.914;12.566;2023-10-08T07:08:07;13.80;99.90
37410;DHT22;23275;48.914;12.566;2023-10-08T07:10:33;13.90;99.90
37410;DHT22;23275;48.914;12.566;2023-10-08T07:13:02;13.80;99.90
37410;DHT22;23275;48.914;12.566;2023-10-08T07:15:33;13.80;99.90
37410;DHT22;23275;48.914;12.566;2023-10-08T07:18:02;13.80;99.90
37410;DHT22;23275;48.914;12.566;2023-10-08T07:20:36;13.90;99.90
37410;DHT22;23275;48.914;12.566;2023-10-08T07:23:08;13.90;99.90
37410;DHT22;23275;48.914;12.566;2023-10-08T07:25:44;13.90;99.90
37410;DHT22;23275;48.914;12.566;2023-10-08T07:28:17;14.00;99.90
37410;DHT22;23275;48.914;12.566;2023-10-08T07:30:54;14.00;99.90
37410;DHT22;23275;48.914;12.566;2023-10-08T07:33:20;13.90;99.90
37410;DHT22;23275;48.914;12.566;2023-10-08T07:35:50;13.90;99.90
37410;DHT22;23275;48.914;12.566;2023-10-08T07:38:25;13.90;99.90
37410;DHT22;23275;48.914;12.566;2023-10-08T07:40:52;13.90;99.90
37410;DHT22;23275;48.914;12.566;2023-10-08T07:43:20;13.90;99.90
37410;DHT22;23275;48.914;12.566;2023-10-08T07:45:46;14.00;99.90
37410;DHT22;23275;48.914;12.566;2023-10-08T07:48:13;14.00;99.90
37410;DHT22;23275;48.914;12.566;2023-10-08T07:50:45;14.00;99.90
37410;DHT22;23275;48.914;12.566;2023-10-08T07:53:12;14.00;99.90
37410;DHT22;23275;48.914;12.566;2023-10-08T07:55:45;14.00;99.90
37410;DHT22;23275;48.914;12.566;2023-10-08T07:58:13;14.10;99.90
37410;DHT22;23275;48.914;12.566;2023-10-08T08:00:40;14.10;99.90
37410;DHT22;23275;48.914;12.566;2023-10-08T08:03:06;14.00;99.90
37410;DHT22;23275;48.914;12.566;2023-10-08T08:05:32;14.10;99.90
37410;DHT22;23275;48.914;12.566;2023-10-08T08:07:58;14.20;99.90
37410;DHT22;23275;48.914;12.566;2023-10-08T08:10:31;14.20;99.90
37410;DHT22;23275;48.914;12.566;2023-10-08T08:13:03;14.30;99.90
37410;DHT22;23275;48.914;12.566;2023-10-08T08:15:34;14.30;99.90
37410;DHT22;23275;48.914;12.566;2023-10-08T08:18:03;14.40;99.90
37410;DHT22;23275;48.914;12.566;2023-10-08T08:20:31;14.40;99.90
37410;DHT22;23275;48.914;12.566;2023-10-08T08:23:09;14.40;99.90
37410;DHT22;23275;48.914;12.566;2023-10-08T08:25:39;14.50;99.90
37410;DHT22;23275;48.914;12.566;2023-10-08T08:28:12;14.50;99.90
37410;DHT22;23275;48.914;12.566;2023-10-08T08:30:43;14.50;99.90
37410;DHT22;23275;48.914;12.566;2023-10-08T08:33:12;14.60;99.90
37410;DHT22;23275;48.914;12.566;2023-10-08T08:35:38;14.60;99.90
37410;DHT22;23275;48.914;12.566;2023-10-08T08:38:04;14.60;99.90
37410;DHT22;23275;48.914;12.566;2023-10-08T08:40:31;14.60;99.90
37410;DHT22;23275;48.914;12.566;2023-10-08T08:42:59;14.60;99.90
37410;DHT22;23275;48.914;12.566;2023-10-08T08:45:28;14.60;99.90
37410;DHT22;23275;48.914;12.566;2023-10-08T08:47:58;14.60;99.90
37410;DHT22;23275;48.914;12.566;2023-10-08T08:50:25;14.50;99.90
37410;DHT22;23275;48.914;12.566;2023-10-08T08:52:53;14.60;99.90
37410;DHT22;23275;48.914;12.566;2023-10-08T08:55:18;14.60;99.90
37410;DHT22;23275;48.914;12.566;2023-10-08T08:57:50;14.70;99.90
37410;DHT22;23275;48.914;12.566;2023-10-08T09:00:17;14.80;99.90
37410;DHT22;23275;48.914;12.566;2023-10-08T09:02:47;14.80;99.90
37410;DHT22;23275;48.914;12.566;2023-10-08T09:05:14;14.90;99.90
37410;DHT22;23275;48.914;12.566;2023-10-08T09:08:02;14.90;99.90
37410;DHT22;23275;48.914;12.566;2023-10-08T09:10:30;15.10;99.90
37410;DHT22;23275;48.914;12.566;2023-10-08T09:12:58;15.10;99.90
37410;DHT22;23275;48.914;12.566;2023-10-08T09:15:25;15.20;99.90
37410;DHT22;23275;48.914;12.566;2023-10-08T09:17:53;15.30;99.90
37410;DHT22;23275;48.914;12.566;2023-10-08T09:20:20;15.50;99.90
37410;DHT22;23275;48.914;12.566;2023-10-08T09:22:46;15.60;99.90
37410;DHT22;23275;48.914;12.566;2023-10-08T09:25:24;15.70;99.90
37410;DHT22;23275;48.914;12.566;2023-10-08T09:27:55;15.80;99.90
37410;DHT22;23275;48.914;12.566;2023-10-08T09:30:21;15.70;99.90
37410;DHT22;23275;48.914;12.566;2023-10-08T09:32:47;15.70;99.90
37410;DHT22;23275;48.914;12.566;2023-10-08T09:35:15;15.60;99.90
37410;DHT22;23275;48.914;12.566;2023-10-08T09:37:43;15.60;99.90
37410;DHT22;23275;48.914;12.566;2023-10-08T09:40:10;15.50;99.90
37410;DHT22;23275;48.914;12.566;2023-10-08T09:42:37;15.50;99.90
37410;DHT22;23275;48.914;12.566;2023-10-08T09:45:05;15.40;99.90
37410;DHT22;23275;48.914;12.566;2023-10-08T09:47:36;15.50;99.90
37410;DHT22;23275;48.914;12.566;2023-10-08T09:50:04;15.50;99.90
37410;DHT22;23275;48.914;12.566;2023-10-08T09:52:49;15.50;99.90
37410;DHT22;23275;48.914;12.566;2023-10-08T09:55:18;15.50;99.90
37410;DHT22;23275;48.914;12.566;2023-10-08T09:57:44;15.50;99.90
37410;DHT22;23275;48.914;12.566;2023-10-08T10:00:10;15.50;99.90
37410;DHT22;23275;48.914;12.566;2023-10-08T10:02:44;15.60;99.90
37410;DHT22;23275;48.914;12.566;2023-10-08T10:05:18;15.60;99.90
37410;DHT22;23275;48.914;12.566;2023-10-08T10:07:48;15.70;99.90
37410;DHT22;23275;48.914;12.566;2023-10-08T10:10:30;15.80;99.90
37410;DHT22;23275;48.914;12.566;2023-10-08T10:12:58;16.00;99.90
37410;DHT22;23275;48.914;12.566;2023-10-08T10:15:25;16.10;99.90
37410;DHT22;23275;48.914;12.566;2023-10-08T10:17:51;16.20;99.90
37410;DHT22;23275;48.914;12.566;2023-10-08T10:20:17;16.20;99.90
37410;DHT22;23275;48.914;12.566;2023-10-08T10:22:45;16.30;99.90
37410;DHT22;23275;48.914;12.566;2023-10-08T10:25:11;16.40;99.90
37410;DHT22;23275;48.914;12.566;2023-10-08T10:27:42;16.50;99.90
37410;DHT22;23275;48.914;12.566;2023-10-08T10:30:31;16.50;99.90
37410;DHT22;23275;48.914;12.566;2023-10-08T10:33:00;16.50;99.90
37410;DHT22;23275;48.914;12.566;2023-10-08T10:35:26;16.60;99.90
37410;DHT22;23275;48.914;12.566;2023-10-08T10:37:53;16.60;99.90
37410;DHT22;23275;48.914;12.566;2023-10-08T10:40:21;16.70;99.90
37410;DHT22;23275;48.914;12.566;2023-10-08T10:42:57;16.70;99.90
37410;DHT22;23275;48.914;12.566;2023-10-08T10:45:23;16.70;99.90
37410;DHT22;23275;48.914;12.566;2023-10-08T10:48:06;16.70;99.90
37410;DHT22;23275;48.914;12.566;2023-10-08T10:50:58;16.80;99.90
37410;DHT22;23275;48.914;12.566;2023-10-08T10:53:31;16.90;99.90
37410;DHT22;23275;48.914;12.566;2023-10-08T10:55:58;17.10;99.90
37410;DHT22;23275;48.914;12.566;2023-10-08T10:58:37;17.40;99.90
37410;DHT22;23275;48.914;12.566;2023-10-08T11:01:05;17.60;99.90
37410;DHT22;23275;48.914;12.566;2023-10-08T11:03:52;18.00;99.90
37410;DHT22;23275;48.914;12.566;2023-10-08T11:06:19;18.30;99.90
37410;DHT22;23275;48.914;12.566;2023-10-08T11:08:52;18.70;99.90
37410;DHT22;23275;48.914;12.566;2023-10-08T11:11:28;19.20;99.90
37410;DHT22;23275;48.914;12.566;2023-10-08T11:14:00;19.30;99.90
37410;DHT22;23275;48.914;12.566;2023-10-08T11:16:26;19.20;99.90
37410;DHT22;23275;48.914;12.566;2023-10-08T11:18:53;19.20;99.90
37410;DHT22;23275;48.914;12.566;2023-10-08T11:21:23;19.30;99.90
37410;DHT22;23275;48.914;12.566;2023-10-08T11:23:51;19.20;99.90
37410;DHT22;23275;48.914;12.566;2023-10-08T11:26:23;19.20;99.90
37410;DHT22;23275;48.914;12.566;2023-10-08T11:29:01;19.20;99.90
37410;DHT22;23275;48.914;12.566;2023-10-08T11:31:28;19.10;99.90
37410;DHT22;23275;48.914;12.566;2023-10-08T11:33:59;18.90;99.90
37410;DHT22;23275;48.914;12.566;2023-10-08T11:36:27;18.90;99.90
37410;DHT22;23275;48.914;12.566;2023-10-08T11:38:59;18.90;99.90
37410;DHT22;23275;48.914;12.566;2023-10-08T11:41:33;19.10;99.90
37410;DHT22;23275;48.914;12.566;2023-10-08T11:44:16;19.60;99.90
37410;DHT22;23275;48.914;12.566;2023-10-08T11:46:45;20.00;99.90
37410;DHT22;23275;48.914;12.566;2023-10-08T11:49:11;20.00;99.90
37410;DHT22;23275;48.914;12.566;2023-10-08T11:51:51;19.80;99.90
37410;DHT22;23275;48.914;12.566;2023-10-08T11:54:17;19.40;99.90
37410;DHT22;23275;48.914;12.566;2023-10-08T11:56:45;19.40;99.90
37410;DHT22;23275;48.914;12.566;2023-10-08T11:59:12;19.50;99.90
37410;DHT22;23275;48.914;12.566;2023-10-08T12:01:39;19.60;99.90
37410;DHT22;23275;48.914;12.566;2023-10-08T12:04:11;19.50;99.90
37410;DHT22;23275;48.914;12.566;2023-10-08T12:06:42;19.40;99.90
37410;DHT22;23275;48.914;12.566;2023-10-08T12:09:18;19.10;99.90
37410;DHT22;23275;48.914;12.566;2023-10-08T12:11:49;18.90;99.90
37410;DHT22;23275;48.914;12.566;2023-10-08T12:14:16;18.90;99.90
37410;DHT22;23275;48.914;12.566;2023-10-08T12:16:42;18.80;99.90
37410;DHT22;23275;48.914;12.566;2023-10-08T12:19:08;18.70;99.90
37410;DHT22;23275;48.914;12.566;2023-10-08T12:21:44;18.60;99.90
37410;DHT22;23275;48.914;12.566;2023-10-08T12:24:13;18.60;99.90
37410;DHT22;23275;48.914;12.566;2023-10-08T12:26:39;18.50;99.90
37410;DHT22;23275;48.914;12.566;2023-10-08T12:29:11;18.50;99.90
37410;DHT22;23275;48.914;12.566;2023-10-08T12:31:39;18.60;99.90
37410;DHT22;23275;48.914;12.566;2023-10-08T12:34:05;18.70;99.90
37410;DHT22;23275;48.914;12.566;2023-10-08T12:36:30;18.90;99.90
37410;DHT22;23275;48.914;12.566;2023-10-08T12:39:01;19.00;99.90
37410;DHT22;23275;48.914;12.566;2023-10-08T12:41:33;19.10;99.90
37410;DHT22;23275;48.914;12.566;2023-10-08T12:44:03;19.20;99.90
37410;DHT22;23275;48.914;12.566;2023-10-08T12:46:33;19.20;99.90
37410;DHT22;23275;48.914;12.566;2023-10-08T12:48:59;19.10;99.90
37410;DHT22;23275;48.914;12.566;2023-10-08T12:51:27;19.00;99.90
37410;DHT22;23275;48.914;12.566;2023-10-08T12:53:57;18.90;99.90
37410;DHT22;23275;48.914;12.566;2023-10-08T12:56:30;18.80;99.90
37410;DHT22;23275;48.914;12.566;2023-10-08T12:59:03;18.70;99.90
37410;DHT22;23275;48.914;12.566;2023-10-08T13:01:35;18.80;99.90
37410;DHT22;23275;48.914;12.566;2023-10-08T13:04:02;18.90;99.90
37410;DHT22;23275;48.914;12.566;2023-10-08T13:06:33;18.90;99.90
37410;DHT22;23275;48.914;12.566;2023-10-08T13:09:03;18.90;99.90
37410;DHT22;23275;48.914;12.566;2023-10-08T13:11:34;19.00;99.90
37410;DHT22;23275;48.914;12.566;2023-10-08T13:14:00;19.00;99.90
37410;DHT22;23275;48.914;12.566;2023-10-08T13:16:27;19.10;99.90
37410;DHT22;23275;48.914;12.566;2023-10-08T13:19:03;19.10;99.90
37410;DHT22;23275;48.914;12.566;2023-10-08T13:21:28;19.10;99.90
37410;DHT22;23275;48.914;12.566;2023-10-08T13:23:55;19.00;99.90
37410;DHT22;23275;48.914;12.566;2023-10-08T13:26:29;18.90;99.90
37410;DHT22;23275;48.914;12.566;2023-10-08T13:28:57;18.80;99.90
37410;DHT22;23275;48.914;12.566;2023-10-08T13:31:28;18.70;99.90
37410;DHT22;23275;48.914;12.566;2023-10-08T13:33:54;18.70;99.90
37410;DHT22;23275;48.914;12.566;2023-10-08T13:36:23;18.60;99.90
37410;DHT22;23275;48.914;12.566;2023-10-08T13:38:49;18.60;99.90
37410;DHT22;23275;48.914;12.566;2023-10-08T13:41:15;18.50;99.90
37410;DHT22;23275;48.914;12.566;2023-10-08T13:43:42;18.50;99.90
37410;DHT22;23275;48.914;12.566;2023-10-08T13:46:11;18.40;99.90
37410;DHT22;23275;48.914;12.566;2023-10-08T13:48:41;18.30;99.90
37410;DHT22;23275;48.914;12.566;2023-10-08T13:51:08;18.30;99.90
37410;DHT22;23275;48.914;12.566;2023-10-08T13:53:39;18.30;99.90
37410;DHT22;23275;48.914;12.566;2023-10-08T13:56:06;18.30;99.90
37410;DHT22;23275;48.914;12.566;2023-10-08T13:58:32;18.30;99.90
37410;DHT22;23275;48.914;12.566;2023-10-08T14:01:01;18.30;99.90
37410;DHT22;23275;48.914;12.566;2023-10-08T14:03:30;18.40;99.90
37410;DHT22;23275;48.914;12.566;2023-10-08T14:05:59;18.50;99.90
37410;DHT22;23275;48.914;12.566;2023-10-08T14:08:30;18.50;99.90
37410;DHT22;23275;48.914;12.566;2023-10-08T14:10:57;18.40;99.90
37410;DHT22;23275;48.914;12.566;2023-10-08T14:13:30;18.20;99.90
37410;DHT22;23275;48.914;12.566;2023-10-08T14:15:58;17.90;99.90
37410;DHT22;23275;48.914;12.566;2023-10-08T14:18:25;17.70;99.90
37410;DHT22;23275;48.914;12.566;2023-10-08T14:21:06;17.60;99.90
37410;DHT22;23275;48.914;12.566;2023-10-08T14:23:36;17.50;99.90
37410;DHT22;23275;48.914;12.566;2023-10-08T14:26:10;17.40;99.90
37410;DHT22;23275;48.914;12.566;2023-10-08T14:28:36;17.30;99.90
37410;DHT22;23275;48.914;12.566;2023-10-08T14:31:07;17.20;99.90
37410;DHT22;23275;48.914;12.566;2023-10-08T14:33:33;17.20;99.90
37410;DHT22;23275;48.914;12.566;2023-10-08T14:36:08;17.20;99.90
37410;DHT22;23275;48.914;12.566;2023-10-08T14:38:53;17.10;99.90
37410;DHT22;23275;48.914;12.566;2023-10-08T14:41:37;17.10;99.90
37410;DHT22;23275;48.914;12.566;2023-10-08T14:44:20;17.00;99.90
37410;DHT22;23275;48.914;12.566;2023-10-08T14:46:46;17.00;99.90
37410;DHT22;23275;48.914;12.566;2023-10-08T14:49:12;17.00;99.90
37410;DHT22;23275;48.914;12.566;2023-10-08T14:51:38;16.90;99.90
37410;DHT22;23275;48.914;12.566;2023-10-08T14:54:06;16.90;99.90
37410;DHT22;23275;48.914;12.566;2023-10-08T14:56:34;16.80;99.90
37410;DHT22;23275;48.914;12.566;2023-10-08T14:59:00;16.70;99.90
37410;DHT22;23275;48.914;12.566;2023-10-08T15:01:26;16.70;99.90
37410;DHT22;23275;48.914;12.566;2023-10-08T15:03:52;16.70;99.90
37410;DHT22;23275;48.914;12.566;2023-10-08T15:06:18;16.60;99.90
37410;DHT22;23275;48.914;12.566;2023-10-08T15:08:44;16.60;99.90
37410;DHT22;23275;48.914;12.566;2023-10-08T15:11:11;16.60;99.90
37410;DHT22;23275;48.914;12.566;2023-10-08T15:13:37;16.50;99.90
37410;DHT22;23275;48.914;12.566;2023-10-08T15:16:11;16.40;99.90
37410;DHT22;23275;48.914;12.566;2023-10-08T15:18:38;16.30;99.90
37410;DHT22;23275;48.914;12.566;2023-10-08T15:21:09;16.30;99.90
37410;DHT22;23275;48.914;12.566;2023-10-08T15:23:35;16.10;99.90
37410;DHT22;23275;48.914;12.566;2023-10-08T15:26:01;16.00;99.90
37410;DHT22;23275;48.914;12.566;2023-10-08T15:28:28;15.80;99.90
37410;DHT22;23275;48.914;12.566;2023-10-08T15:30:53;15.70;99.90
37410;DHT22;23275;48.914;12.566;2023-10-08T15:33:19;15.60;99.90
37410;DHT22;23275;48.914;12.566;2023-10-08T15:35:45;15.60;99.90
37410;DHT22;23275;48.914;12.566;2023-10-08T15:38:10;15.50;99.90